createdAt,value
2022-12-03T00:02:17.460Z,4.58
2022-12-03T00:07:18.592Z,4.19
2022-12-03T00:12:24.031Z,4.13
2022-12-03T00:17:23.665Z,4.39
2022-12-03T00:22:25.693Z,4.92
2022-12-03T00:27:24.843Z,4.67
2022-12-03T00:32:26.096Z,4.57
2022-12-03T00:37:35.433Z,4.58
2022-12-03T00:42:38.578Z,4.55
2022-12-03T00:47:37.232Z,4.74
2022-12-03T00:52:35.398Z,4.54
2022-12-03T00:57:41.423Z,4.07
2022-12-03T01:02:40.379Z,4.11
2022-12-03T01:07:43.473Z,4.37
2022-12-03T01:12:42.411Z,4.69
2022-12-03T01:17:43.512Z,4.54
2022-12-03T01:22:41.546Z,4.41
2022-12-03T01:27:40.888Z,4.06
2022-12-03T01:32:39.695Z,4.49
2022-12-03T01:37:40.885Z,4.73
2022-12-03T01:42:40.792Z,4.82
2022-12-03T01:47:39.834Z,4.35
2022-12-03T01:52:43.011Z,4.19
2022-12-03T01:57:45.577Z,4.00
2022-12-03T02:02:45.364Z,4.21
2022-12-03T02:07:47.049Z,4.44
2022-12-03T02:12:46.830Z,4.46
2022-12-03T02:17:48.936Z,4.70
2022-12-03T02:22:51.261Z,4.63
2022-12-03T02:27:52.701Z,4.65
2022-12-03T02:32:53.384Z,4.69
2022-12-03T02:37:55.326Z,4.78
2022-12-03T02:42:54.041Z,4.80
2022-12-03T02:47:55.491Z,4.95
2022-12-03T02:52:53.114Z,4.28
2022-12-03T02:57:52.840Z,4.01
2022-12-03T03:02:54.673Z,4.32
2022-12-03T03:07:59.210Z,4.85
2022-12-03T03:12:58.421Z,4.60
2022-12-03T03:17:59.908Z,4.58
2022-12-03T03:23:24.692Z,4.44
2022-12-03T03:28:29.152Z,4.81
2022-12-03T03:33:28.226Z,4.61
2022-12-03T03:38:27.891Z,4.56
2022-12-03T03:43:25.711Z,4.59
2022-12-03T03:48:24.603Z,4.95
2022-12-03T03:53:25.378Z,4.77
2022-12-03T03:58:24.810Z,4.67
2022-12-03T04:03:25.513Z,4.55
2022-12-03T04:08:24.949Z,4.81
2022-12-03T04:13:26.764Z,4.68
2022-12-03T04:18:46.027Z,4.67
2022-12-03T04:23:45.277Z,4.57
2022-12-03T04:28:53.757Z,4.56
2022-12-03T04:34:14.223Z,4.54
2022-12-03T04:39:13.525Z,4.70
2022-12-03T04:44:35.108Z,4.70
2022-12-03T04:49:34.159Z,4.55
2022-12-03T04:54:33.521Z,4.60
2022-12-03T04:59:34.480Z,4.37
2022-12-03T05:04:36.637Z,4.54
2022-12-03T05:09:35.507Z,4.16
2022-12-03T05:14:33.197Z,4.42
2022-12-03T05:19:50.424Z,4.50
2022-12-03T05:24:47.734Z,4.67
2022-12-03T05:29:49.901Z,4.96
2022-12-03T05:34:50.776Z,4.67
2022-12-03T05:39:50.709Z,4.57
2022-12-03T05:44:51.560Z,4.92
2022-12-03T05:49:51.235Z,4.84
2022-12-03T05:54:59.868Z,4.66
2022-12-03T06:00:00.372Z,4.56
2022-12-03T06:04:59.143Z,4.45
2022-12-03T06:09:57.500Z,4.47
2022-12-03T06:14:55.703Z,4.20
2022-12-03T06:19:59.663Z,4.74
2022-12-03T06:25:05.127Z,4.78
2022-12-03T06:30:09.133Z,4.96
2022-12-03T06:35:11.456Z,4.64
2022-12-03T06:40:11.525Z,4.77
2022-12-03T06:45:17.987Z,4.72
2022-12-03T06:50:45.537Z,4.89
2022-12-03T06:55:47.047Z,5.15
2022-12-03T07:00:46.170Z,4.90
2022-12-03T07:05:44.173Z,4.34
2022-12-03T07:10:41.963Z,4.38
2022-12-03T07:15:43.344Z,4.96
2022-12-03T07:20:42.114Z,4.87
2022-12-03T07:25:41.768Z,4.71
2022-12-03T07:30:40.338Z,5.32
2022-12-03T07:35:39.506Z,5.19
2022-12-03T07:40:37.257Z,4.97
2022-12-03T07:45:39.712Z,5.33
2022-12-03T07:50:41.518Z,5.25
2022-12-03T07:55:41.551Z,4.57
2022-12-03T08:00:42.386Z,4.71
2022-12-03T08:05:46.061Z,5.25
2022-12-03T08:10:47.279Z,5.10
2022-12-03T08:15:46.486Z,4.95
2022-12-03T08:20:45.104Z,4.73
2022-12-03T08:25:43.200Z,4.53
2022-12-03T08:30:41.614Z,4.83
2022-12-03T08:35:42.439Z,4.70
2022-12-03T08:40:40.952Z,5.14
2022-12-03T08:45:40.665Z,5.26
2022-12-03T08:50:42.060Z,5.15
2022-12-03T08:55:42.799Z,5.59
2022-12-03T09:00:43.109Z,5.82
2022-12-03T09:05:41.021Z,5.52
2022-12-03T09:10:40.159Z,5.37
2022-12-03T09:15:40.988Z,5.52
2022-12-03T09:20:39.534Z,5.97
2022-12-03T09:25:40.086Z,5.89
2022-12-03T09:30:40.656Z,5.68
2022-12-03T09:35:39.687Z,5.23
2022-12-03T09:40:37.653Z,5.44
2022-12-03T09:45:37.546Z,5.84
2022-12-03T09:50:35.326Z,5.88
2022-12-03T09:55:58.876Z,5.94
2022-12-03T10:00:57.530Z,5.83
2022-12-03T10:05:55.144Z,5.66
2022-12-03T10:10:53.473Z,5.12
2022-12-03T10:15:56.875Z,5.68
2022-12-03T10:20:56.555Z,5.54
2022-12-03T10:25:58.113Z,5.89
2022-12-03T10:30:56.128Z,5.17
2022-12-03T10:35:54.599Z,5.51
2022-12-03T10:40:55.505Z,5.64
2022-12-03T10:46:03.727Z,5.06
2022-12-03T10:51:22.494Z,4.88
2022-12-03T10:56:26.843Z,5.64
2022-12-03T11:01:26.639Z,5.73
2022-12-03T11:06:26.221Z,5.88
2022-12-03T11:11:25.955Z,5.41
2022-12-03T11:16:45.513Z,5.77
2022-12-03T11:22:03.791Z,5.56
2022-12-03T11:27:01.806Z,5.71
2022-12-03T11:32:03.454Z,5.96
2022-12-03T11:37:11.731Z,6.25
2022-12-03T11:42:28.699Z,5.94
2022-12-03T11:47:27.474Z,5.50
2022-12-03T11:52:29.140Z,5.90
2022-12-03T11:57:31.337Z,6.15
2022-12-03T12:02:31.934Z,5.79
2022-12-03T12:07:41.953Z,5.99
2022-12-03T12:12:54.341Z,5.47
2022-12-03T12:17:56.204Z,5.36
2022-12-03T12:22:57.573Z,5.68
2022-12-03T12:27:56.502Z,5.72
2022-12-03T12:33:17.499Z,5.58
2022-12-03T12:38:21.176Z,5.57
2022-12-03T12:43:24.348Z,5.93
2022-12-03T12:48:29.607Z,5.85
2022-12-03T12:53:32.563Z,5.63
2022-12-03T12:58:33.598Z,5.33
2022-12-03T13:03:33.762Z,5.81
2022-12-03T13:08:33.505Z,5.70
2022-12-03T13:13:41.673Z,5.86
2022-12-03T13:18:51.492Z,5.53
2022-12-03T13:23:50.721Z,5.43
2022-12-03T13:28:51.179Z,5.78
2022-12-03T13:33:49.597Z,5.48
2022-12-03T13:38:49.162Z,5.72
2022-12-03T13:43:49.300Z,5.86
2022-12-03T13:49:15.069Z,5.52
2022-12-03T13:54:22.392Z,5.60
2022-12-03T13:59:26.468Z,5.83
2022-12-03T14:04:30.499Z,5.80
2022-12-03T14:09:29.405Z,5.70
2022-12-03T14:14:29.477Z,5.53
2022-12-03T14:19:31.746Z,5.43
2022-12-03T14:24:30.181Z,5.46
2022-12-03T14:29:32.244Z,5.44
2022-12-03T14:34:32.510Z,5.30
2022-12-03T14:39:33.423Z,5.33
2022-12-03T14:44:33.141Z,5.40
2022-12-03T14:49:34.476Z,5.30
2022-12-03T14:54:35.913Z,5.42
2022-12-03T14:59:36.418Z,5.69
2022-12-03T15:04:35.688Z,5.56
2022-12-03T15:09:37.798Z,5.52
2022-12-03T15:14:36.228Z,5.14
2022-12-03T15:19:35.122Z,5.28
2022-12-03T15:24:37.833Z,5.01
2022-12-03T15:29:40.422Z,5.23
2022-12-03T15:34:42.061Z,5.25
2022-12-03T15:39:52.751Z,5.25
2022-12-03T15:44:54.290Z,5.52
2022-12-03T15:49:54.459Z,5.48
2022-12-03T15:54:53.202Z,5.32
2022-12-03T15:59:51.916Z,5.26
2022-12-03T16:04:54.388Z,5.13
2022-12-03T16:10:03.914Z,5.20
2022-12-03T16:15:02.735Z,5.13
